createdAt,value
2023-03-23T00:02:34.181Z,8.40
2023-03-23T00:22:34.203Z,6.20
2023-03-23T00:27:34.196Z,6.20
2023-03-23T00:52:34.231Z,8.60
2023-03-23T01:22:34.225Z,7.40
2023-03-23T01:27:34.225Z,7.40
2023-03-23T01:32:34.201Z,7.40
2023-03-23T01:42:34.218Z,8.70
2023-03-23T01:47:34.230Z,8.70
2023-03-23T01:52:34.218Z,8.90
2023-03-23T02:02:34.234Z,8.90
2023-03-23T02:07:34.232Z,7.20
2023-03-23T02:22:34.228Z,9.20
2023-03-23T02:37:34.239Z,9.50
2023-03-23T02:42:34.238Z,9.50
2023-03-23T03:17:34.226Z,8.90
2023-03-23T04:02:34.261Z,7.20
2023-03-23T04:07:34.427Z,6.70
2023-03-23T04:17:34.273Z,6.70
2023-03-23T04:47:34.288Z,9.70
2023-03-23T04:52:34.292Z,6.70
2023-03-23T04:57:34.271Z,6.70
2023-03-23T05:07:34.292Z,8.00
2023-03-23T05:22:34.295Z,7.90
2023-03-23T05:27:34.278Z,7.90
2023-03-23T05:37:34.294Z,9.10
2023-03-23T05:52:34.286Z,7.70
2023-03-23T05:57:34.290Z,7.70
2023-03-23T06:02:34.325Z,7.70
2023-03-23T06:17:34.290Z,7.60
2023-03-23T06:22:34.294Z,5.80
2023-03-23T06:27:34.301Z,5.80
2023-03-23T06:32:34.296Z,5.80
2023-03-23T06:47:34.328Z,6.20
2023-03-23T06:57:34.312Z,9.30
2023-03-23T07:02:34.316Z,9.30
2023-03-23T07:07:34.325Z,8.20
2023-03-23T07:22:34.307Z,7.00
2023-03-23T07:32:34.341Z,7.00
2023-03-23T07:47:34.418Z,7.20
2023-03-23T07:52:34.334Z,6.90
2023-03-23T08:02:35.179Z,6.90
2023-03-23T08:07:34.328Z,6.30
2023-03-23T08:12:34.357Z,6.30
2023-03-23T08:17:34.351Z,6.30
2023-03-23T08:27:34.324Z,6.70
2023-03-23T08:37:34.350Z,6.20
2023-03-23T08:42:34.528Z,6.20
2023-03-23T08:47:34.343Z,6.20
2023-03-23T08:52:34.350Z,6.50
2023-03-23T08:57:34.353Z,6.50
2023-03-23T09:02:34.346Z,6.50
2023-03-23T09:07:34.334Z,5.80
2023-03-23T09:12:34.344Z,5.80
2023-03-23T09:17:34.363Z,5.80
2023-03-23T09:22:34.348Z,2.70
2023-03-23T09:27:34.361Z,2.70
2023-03-23T09:32:34.382Z,2.70
2023-03-23T09:37:34.389Z,4.40
2023-03-23T09:42:34.377Z,4.40
2023-03-23T09:47:34.377Z,4.40
2023-03-23T09:52:34.383Z,5.70
2023-03-23T09:57:34.359Z,5.70
2023-03-23T10:02:34.397Z,5.70
2023-03-23T10:07:34.374Z,6.60
2023-03-23T10:12:34.381Z,6.60
2023-03-23T10:17:34.465Z,6.60
2023-03-23T10:22:34.397Z,10.40
2023-03-23T10:27:34.390Z,10.40
2023-03-23T10:32:34.421Z,10.40
2023-03-23T10:37:34.413Z,11.90
2023-03-23T10:42:34.472Z,11.90
2023-03-23T10:47:34.472Z,11.90
2023-03-23T10:52:34.401Z,9.00
2023-03-23T10:57:34.368Z,9.00
2023-03-23T11:02:34.397Z,9.00
2023-03-23T11:07:34.407Z,8.80
2023-03-23T11:12:34.390Z,8.80
2023-03-23T11:17:34.395Z,8.80
2023-03-23T11:22:34.404Z,6.50
2023-03-23T11:27:34.401Z,6.50
2023-03-23T11:32:34.420Z,6.50
2023-03-23T11:37:34.387Z,6.90
2023-03-23T11:42:34.404Z,6.90
2023-03-23T11:47:34.428Z,6.90
2023-03-23T11:52:34.423Z,7.00
2023-03-23T11:57:34.400Z,7.00
2023-03-23T12:02:34.417Z,7.00
2023-03-23T12:07:34.419Z,6.10
2023-03-23T12:12:34.418Z,6.10
2023-03-23T12:17:34.413Z,6.10
2023-03-23T12:22:34.397Z,5.70
2023-03-23T12:27:34.415Z,5.70
2023-03-23T12:32:34.442Z,5.70
2023-03-23T12:37:34.416Z,6.80
2023-03-23T12:42:34.429Z,6.80
2023-03-23T12:47:34.434Z,6.80
2023-03-23T12:52:34.423Z,5.50
2023-03-23T12:57:34.431Z,5.50
2023-03-23T13:02:34.425Z,5.50
2023-03-23T13:07:34.442Z,5.20
2023-03-23T13:12:34.448Z,5.20
2023-03-23T13:17:34.440Z,5.20
2023-03-23T13:22:34.431Z,7.40
2023-03-23T13:27:34.426Z,7.40
2023-03-23T13:32:34.546Z,7.40
2023-03-23T13:37:35.548Z,7.50
2023-03-23T13:42:34.448Z,7.50
2023-03-23T13:47:34.431Z,7.50
2023-03-23T13:57:34.451Z,5.60
2023-03-23T14:02:34.464Z,5.60
2023-03-23T14:07:34.463Z,5.60
2023-03-23T14:12:34.474Z,5.60
2023-03-23T14:17:34.458Z,5.60
2023-03-23T14:22:34.483Z,7.50
2023-03-23T14:27:34.452Z,7.50
2023-03-23T14:32:34.496Z,7.50
2023-03-23T14:37:34.455Z,4.40
2023-03-23T14:42:34.452Z,4.40
2023-03-23T14:47:34.450Z,4.40
2023-03-23T14:52:34.480Z,7.70
2023-03-23T14:57:34.469Z,7.70
2023-03-23T15:02:34.487Z,7.70
2023-03-23T15:07:34.447Z,6.70
2023-03-23T15:12:34.477Z,6.70
2023-03-23T15:17:34.489Z,6.70
2023-03-23T15:22:34.467Z,7.50
2023-03-23T15:27:34.465Z,7.50
2023-03-23T15:32:35.497Z,7.50
2023-03-23T15:37:34.507Z,7.10
2023-03-23T15:42:34.474Z,7.10
2023-03-23T15:47:34.493Z,7.10
2023-03-23T15:52:34.481Z,7.00
2023-03-23T15:57:34.482Z,7.00
2023-03-23T16:02:34.584Z,7.00
2023-03-23T16:07:34.475Z,7.80
2023-03-23T16:12:34.473Z,7.80
2023-03-23T16:17:34.571Z,7.80
2023-03-23T16:22:34.504Z,6.70
2023-03-23T16:27:34.496Z,6.70
2023-03-23T16:37:34.504Z,7.20
2023-03-23T16:42:34.501Z,7.20
2023-03-23T16:47:34.562Z,7.20
2023-03-23T16:52:34.497Z,5.60
2023-03-23T16:57:34.525Z,5.60
2023-03-23T17:02:34.608Z,5.60
2023-03-23T17:07:34.508Z,6.90
2023-03-23T17:12:34.508Z,6.90
2023-03-23T17:17:34.567Z,6.90
2023-03-23T17:22:34.538Z,5.50
2023-03-23T17:27:34.523Z,5.50
2023-03-23T17:32:34.526Z,6.90
2023-03-23T17:37:34.559Z,6.90
2023-03-23T17:52:34.526Z,5.20
2023-03-23T17:57:34.515Z,5.20
2023-03-23T18:02:34.621Z,7.80
2023-03-23T18:07:34.532Z,7.80
2023-03-23T18:12:34.519Z,7.80
2023-03-23T18:17:34.560Z,6.10
2023-03-23T18:22:34.550Z,6.10
2023-03-23T18:27:34.546Z,6.10
2023-03-23T18:37:34.559Z,9.10
2023-03-23T18:42:34.568Z,9.10
2023-03-23T18:47:34.625Z,6.90
2023-03-23T19:07:34.565Z,7.50
2023-03-23T19:12:34.556Z,7.50
2023-03-23T19:17:34.573Z,8.20
2023-03-23T19:22:34.574Z,8.20
2023-03-23T19:27:47.417Z,8.20
2023-03-23T19:32:34.589Z,4.90
2023-03-23T19:37:34.940Z,4.90
2023-03-23T19:42:34.577Z,4.90
2023-03-23T19:52:35.297Z,6.10
2023-03-23T20:17:34.611Z,9.60
2023-03-23T20:22:34.593Z,9.60
2023-03-23T20:27:34.595Z,9.60
2023-03-23T20:32:34.649Z,10.70
2023-03-23T20:37:34.629Z,10.70
2023-03-23T20:42:34.602Z,10.70
2023-03-23T20:47:34.597Z,10.30
2023-03-23T20:57:34.595Z,10.30
2023-03-23T21:02:34.627Z,9.30
2023-03-23T21:07:34.614Z,9.30
2023-03-23T21:12:34.600Z,9.30
2023-03-23T21:22:34.610Z,7.90
2023-03-23T21:27:34.599Z,7.90
2023-03-23T21:32:34.615Z,6.40
2023-03-23T21:52:34.604Z,8.30
2023-03-23T22:12:34.606Z,8.10
2023-03-23T22:17:34.614Z,5.20
2023-03-23T22:22:34.610Z,5.20
2023-03-23T22:37:34.625Z,7.60
2023-03-23T22:47:34.647Z,5.90
2023-03-23T22:52:34.616Z,5.90
2023-03-23T23:07:34.635Z,4.20
2023-03-23T23:12:34.633Z,4.20
2023-03-23T23:17:35.009Z,5.50
2023-03-23T23:37:34.660Z,4.40
2023-03-23T23:52:34.658Z,7.00
2023-03-23T23:57:34.660Z,7.00
